createdAt,value
2023-01-09T00:02:32.046Z,98528.75
2023-01-09T00:05:33.796Z,98521.91
2023-01-09T00:08:35.554Z,98521.91
2023-01-09T00:11:37.425Z,98519.41
2023-01-09T00:14:40.468Z,98509.72
2023-01-09T00:17:42.246Z,98510.63
2023-01-09T00:20:44.111Z,98501.97
2023-01-09T00:23:46.133Z,98491.50
2023-01-09T00:26:47.820Z,98482.97
2023-01-09T00:29:51.938Z,98475.63
2023-01-09T00:32:54.138Z,98478.94
2023-01-09T00:35:55.887Z,98465.03
2023-01-09T00:38:57.677Z,98471.28
2023-01-09T00:41:59.575Z,98469.91
2023-01-09T00:45:05.576Z,98463.88
2023-01-09T00:48:09.920Z,98470.25
2023-01-09T00:51:11.711Z,98467.41
2023-01-09T00:54:16.550Z,98463.88
2023-01-09T00:57:18.436Z,98461.97
2023-01-09T01:00:21.655Z,98460.56
2023-01-09T01:03:23.359Z,98460.56
2023-01-09T01:06:43.477Z,98454.31
2023-01-09T01:09:45.156Z,98472.84
2023-01-09T01:12:47.845Z,98467.72
2023-01-09T01:15:50.905Z,98469.66
2023-01-09T01:18:52.728Z,98471.50
2023-01-09T01:21:54.461Z,98476.72
2023-01-09T01:24:56.169Z,98469.88
2023-01-09T01:27:57.896Z,98475.00
2023-01-09T01:31:01.381Z,98471.50
2023-01-09T01:34:03.540Z,98462.75
2023-01-09T01:37:05.548Z,98476.72
2023-01-09T01:40:10.456Z,98472.06
2023-01-09T01:43:12.668Z,98476.50
2023-01-09T01:46:16.021Z,98479.03
2023-01-09T01:49:20.359Z,98475.59
2023-01-09T01:52:23.922Z,98482.53
2023-01-09T01:55:25.916Z,98479.22
2023-01-09T01:58:28.444Z,98483.53
2023-01-09T02:01:33.788Z,98483.69
2023-01-09T02:04:39.904Z,98485.16
2023-01-09T02:07:41.714Z,98487.66
2023-01-09T02:10:44.907Z,98499.72
2023-01-09T02:13:47.721Z,98493.47
2023-01-09T02:16:57.869Z,98502.00
2023-01-09T02:20:44.767Z,98504.94
2023-01-09T02:24:08.746Z,98512.13
2023-01-09T02:27:33.626Z,98514.47
2023-01-09T02:30:44.034Z,98517.66
2023-01-09T02:33:54.936Z,98520.19
2023-01-09T02:37:04.975Z,98527.13
2023-01-09T02:40:16.758Z,98515.97
2023-01-09T02:43:19.133Z,98520.63
2023-01-09T02:46:22.966Z,98516.88
2023-01-09T02:49:24.733Z,98523.03
2023-01-09T02:52:37.800Z,98522.00
2023-01-09T02:55:51.597Z,98533.38
2023-01-09T02:59:10.609Z,98540.97
2023-01-09T03:02:29.533Z,98549.31
2023-01-09T03:05:39.425Z,98545.91
2023-01-09T03:08:45.465Z,98543.50
2023-01-09T03:11:51.675Z,98548.84
2023-01-09T03:14:58.134Z,98555.22
2023-01-09T03:18:04.293Z,98562.13
2023-01-09T03:21:09.345Z,98563.19
2023-01-09T03:24:10.878Z,98559.09
2023-01-09T03:27:12.858Z,98570.25
2023-01-09T03:30:15.325Z,98564.19
2023-01-09T03:33:18.394Z,98579.66
2023-01-09T03:36:21.704Z,98581.28
2023-01-09T03:39:23.483Z,98583.06
2023-01-09T03:42:25.479Z,98597.09
2023-01-09T03:45:27.479Z,98602.31
2023-01-09T03:48:30.849Z,98606.19
2023-01-09T03:51:32.577Z,98608.09
2023-01-09T03:54:34.271Z,98616.41
2023-01-09T03:57:36.071Z,98625.84
2023-01-09T04:00:39.372Z,98623.38
2023-01-09T04:03:42.493Z,98630.41
2023-01-09T04:06:44.260Z,98638.00
2023-01-09T04:09:46.057Z,98647.56
2023-01-09T04:12:47.711Z,98663.72
2023-01-09T04:15:49.595Z,98675.75
2023-01-09T04:18:52.664Z,98671.44
2023-01-09T04:21:54.407Z,98681.53
2023-01-09T04:24:56.047Z,98689.88
2023-01-09T04:27:58.001Z,98704.13
2023-01-09T04:30:59.941Z,98700.00
2023-01-09T04:34:03.012Z,98711.25
2023-01-09T04:37:04.810Z,98722.53
2023-01-09T04:40:12.012Z,98725.72
2023-01-09T04:43:13.705Z,98731.41
2023-01-09T04:46:15.476Z,98731.84
2023-01-09T04:49:18.755Z,98739.03
2023-01-09T04:52:20.528Z,98741.25
2023-01-09T04:55:22.540Z,98751.44
2023-01-09T04:58:24.298Z,98763.56
2023-01-09T05:01:26.311Z,98767.13
2023-01-09T05:04:29.733Z,98777.97
2023-01-09T05:07:31.460Z,98785.03
2023-01-09T05:10:33.238Z,98784.16
2023-01-09T05:13:34.884Z,98790.63
2023-01-09T05:16:36.693Z,98799.69
2023-01-09T05:19:39.821Z,98805.09
2023-01-09T05:22:41.498Z,98810.22
2023-01-09T05:25:43.325Z,98820.72
2023-01-09T05:28:45.429Z,98829.78
2023-01-09T05:31:47.302Z,98839.22
2023-01-09T05:34:50.351Z,98840.72
2023-01-09T05:37:52.137Z,98844.88
2023-01-09T05:40:53.890Z,98840.19
2023-01-09T05:43:55.605Z,98849.78
2023-01-09T05:46:57.385Z,98855.00
2023-01-09T05:50:00.438Z,98861.91
2023-01-09T05:53:02.168Z,98851.00
2023-01-09T05:56:03.973Z,98858.88
2023-01-09T05:59:05.883Z,98859.53
2023-01-09T06:02:07.986Z,98853.13
2023-01-09T06:05:11.791Z,98881.38
2023-01-09T06:08:13.613Z,98867.09
2023-01-09T06:11:15.380Z,98875.34
2023-01-09T06:14:17.207Z,98874.94
2023-01-09T06:17:19.027Z,98883.84
2023-01-09T06:20:22.442Z,98885.03
2023-01-09T06:23:24.445Z,98890.63
2023-01-09T06:26:26.316Z,98898.31
2023-01-09T06:29:28.069Z,98882.22
2023-01-09T06:32:29.783Z,98885.13
2023-01-09T06:35:32.899Z,98895.47
2023-01-09T06:38:34.761Z,98903.97
2023-01-09T06:41:37.591Z,98911.56
2023-01-09T06:44:39.489Z,98905.16
2023-01-09T06:47:41.567Z,98905.56
2023-01-09T06:50:45.839Z,98900.03
2023-01-09T06:53:47.565Z,98905.81
2023-01-09T06:56:49.392Z,98902.03
2023-01-09T06:59:51.153Z,98902.16
2023-01-09T07:02:52.981Z,98891.88
2023-01-09T07:05:56.596Z,98899.16
2023-01-09T07:08:58.320Z,98892.50
2023-01-09T07:12:00.098Z,98899.44
2023-01-09T07:15:02.045Z,98907.25
2023-01-09T07:18:04.333Z,98910.66
2023-01-09T07:21:07.372Z,98919.13
2023-01-09T07:24:09.053Z,98915.09
2023-01-09T07:27:11.929Z,98917.72
2023-01-09T07:30:14.663Z,98922.03
2023-01-09T07:33:16.864Z,98921.22
2023-01-09T07:36:20.032Z,98926.31
2023-01-09T07:39:21.887Z,98926.19
2023-01-09T07:42:23.546Z,98926.31
2023-01-09T07:45:25.314Z,98935.97
2023-01-09T07:48:27.401Z,98928.94
2023-01-09T07:51:30.549Z,98933.50
2023-01-09T07:54:32.393Z,98942.66
2023-01-09T07:57:34.150Z,98950.88
2023-01-09T08:00:36.182Z,98954.41
2023-01-09T08:03:38.788Z,98961.06
2023-01-09T08:06:41.876Z,98957.53
2023-01-09T08:09:43.521Z,98961.84
2023-01-09T08:12:45.499Z,98965.63
2023-01-09T08:15:47.331Z,98972.44
2023-01-09T08:18:49.157Z,98966.16
2023-01-09T08:21:52.292Z,98965.47
2023-01-09T08:24:53.941Z,98977.25
2023-01-09T08:27:55.693Z,98973.59
2023-01-09T08:30:57.382Z,98975.81
2023-01-09T08:33:59.145Z,98978.53
2023-01-09T08:37:02.238Z,98977.66
2023-01-09T08:40:04.413Z,98979.34
2023-01-09T08:43:24.883Z,98989.94
2023-01-09T08:46:45.239Z,98989.00
2023-01-09T08:49:46.977Z,99003.25
2023-01-09T08:52:50.060Z,99005.06
2023-01-09T08:55:51.800Z,99006.63
2023-01-09T08:58:53.508Z,99005.06
2023-01-09T09:01:55.282Z,99010.94
2023-01-09T09:04:57.890Z,99016.28
2023-01-09T09:08:01.053Z,99022.94
2023-01-09T09:11:03.216Z,99024.53
2023-01-09T09:14:25.729Z,99021.91
2023-01-09T09:17:28.918Z,99030.03
2023-01-09T09:20:33.148Z,99034.84
2023-01-09T09:23:36.279Z,99038.28
2023-01-09T09:26:38.045Z,99034.59
2023-01-09T09:29:39.700Z,99030.69
2023-01-09T09:32:41.523Z,99032.41
2023-01-09T09:35:43.583Z,99030.16
2023-01-09T09:38:46.674Z,99029.41
2023-01-09T09:42:26.778Z,99025.06
2023-01-09T09:45:40.584Z,99022.19
2023-01-09T09:48:50.272Z,99025.47
2023-01-09T09:52:08.463Z,99016.84
2023-01-09T09:55:18.769Z,99025.34
2023-01-09T09:58:26.019Z,99021.66
2023-01-09T10:01:36.468Z,99033.06
2023-01-09T10:04:42.941Z,99031.72
2023-01-09T10:07:49.714Z,99022.47
2023-01-09T10:10:55.316Z,99019.59
2023-01-09T10:14:08.504Z,99017.47
2023-01-09T10:17:34.123Z,99022.34
2023-01-09T10:20:48.847Z,99018.53
2023-01-09T10:24:12.029Z,99015.69
2023-01-09T10:27:22.090Z,99013.44
2023-01-09T10:30:35.119Z,99008.22
2023-01-09T10:33:54.135Z,99016.19
2023-01-09T10:37:10.104Z,99015.41
2023-01-09T10:40:19.576Z,99015.50
2023-01-09T10:43:32.208Z,99012.00
2023-01-09T10:46:38.628Z,99009.91
2023-01-09T10:49:41.065Z,99015.91
2023-01-09T10:52:42.995Z,99015.66
2023-01-09T10:55:47.705Z,99022.19
2023-01-09T10:58:52.606Z,99033.00
2023-01-09T11:01:54.770Z,99028.28
2023-01-09T11:04:56.595Z,99038.38
2023-01-09T11:08:04.589Z,99018.25
2023-01-09T11:11:06.905Z,99022.81
2023-01-09T11:14:17.528Z,99028.16
2023-01-09T11:17:21.319Z,99033.78
2023-01-09T11:20:28.517Z,99042.81
2023-01-09T11:23:32.344Z,99029.19
2023-01-09T11:26:35.113Z,99027.38
2023-01-09T11:29:38.927Z,99037.47
2023-01-09T11:32:41.087Z,99035.50
2023-01-09T11:35:57.429Z,99032.09
2023-01-09T11:39:01.015Z,99038.63
2023-01-09T11:42:05.438Z,99036.00
2023-01-09T11:45:15.443Z,99030.78
2023-01-09T11:48:25.271Z,99029.09
2023-01-09T11:51:29.084Z,99036.44
2023-01-09T11:54:34.595Z,99029.63
2023-01-09T11:57:36.248Z,99026.91
2023-01-09T12:00:50.697Z,99019.69
2023-01-09T12:04:11.060Z,99025.88
2023-01-09T12:07:38.980Z,99027.53
2023-01-09T12:11:01.305Z,99029.50
2023-01-09T12:14:17.836Z,99031.31
2023-01-09T12:17:41.003Z,99035.00
2023-01-09T12:20:56.461Z,99029.13
2023-01-09T12:24:11.022Z,99032.63
2023-01-09T12:27:24.928Z,99019.31
2023-01-09T12:30:42.535Z,99017.63
2023-01-09T12:33:59.177Z,99017.72
2023-01-09T12:37:13.229Z,99015.66
2023-01-09T12:40:40.444Z,99037.09
2023-01-09T12:43:52.146Z,99028.06
2023-01-09T12:47:06.244Z,99023.50
2023-01-09T12:50:26.026Z,99032.00
2023-01-09T12:53:31.673Z,99038.66
2023-01-09T12:56:37.270Z,99029.75
2023-01-09T12:59:42.856Z,99039.81
2023-01-09T13:02:50.433Z,99042.03
2023-01-09T13:05:57.532Z,99048.81
2023-01-09T13:09:13.005Z,99053.47
2023-01-09T13:12:18.205Z,99058.06
2023-01-09T13:15:29.088Z,99049.59
2023-01-09T13:18:42.293Z,99062.03
2023-01-09T13:21:46.092Z,99056.16
2023-01-09T13:25:19.253Z,99066.34
2023-01-09T13:28:24.998Z,99066.22
2023-01-09T13:32:06.040Z,99067.88
2023-01-09T13:35:13.410Z,99066.59
2023-01-09T13:38:19.629Z,99068.69
2023-01-09T13:41:40.639Z,99060.56
2023-01-09T13:44:42.741Z,99061.25
2023-01-09T13:47:45.030Z,99069.72
2023-01-09T13:50:48.202Z,99069.84
2023-01-09T13:53:51.293Z,99080.00
2023-01-09T13:57:26.572Z,99073.28
2023-01-09T14:00:53.709Z,99073.03
2023-01-09T14:04:28.703Z,99067.16
2023-01-09T14:07:30.928Z,99076.31
2023-01-09T14:10:38.024Z,99077.59
2023-01-09T14:13:43.631Z,99082.44
2023-01-09T14:16:45.404Z,99083.34
2023-01-09T14:19:55.609Z,99091.44
2023-01-09T14:23:18.070Z,99090.81
2023-01-09T14:26:43.677Z,99091.69
2023-01-09T14:29:47.550Z,99095.00
2023-01-09T14:32:56.693Z,99091.69
2023-01-09T14:36:12.452Z,99096.16
2023-01-09T14:39:15.214Z,99094.19
2023-01-09T14:42:22.696Z,99103.19
2023-01-09T14:45:27.171Z,99115.09
2023-01-09T14:48:29.795Z,99130.66
2023-01-09T14:51:37.036Z,99134.81
2023-01-09T14:54:42.023Z,99128.81
2023-01-09T14:57:45.077Z,99132.84
2023-01-09T15:00:50.800Z,99145.66
2023-01-09T15:03:58.733Z,99146.09
2023-01-09T15:07:00.956Z,99150.53
2023-01-09T15:10:03.994Z,99152.34
2023-01-09T15:13:13.322Z,99157.44
2023-01-09T15:16:19.030Z,99166.22
2023-01-09T15:19:20.842Z,99172.09
2023-01-09T15:22:27.501Z,99170.81
2023-01-09T15:25:38.959Z,99177.69
2023-01-09T15:28:46.231Z,99171.16
2023-01-09T15:31:52.963Z,99178.34
2023-01-09T15:34:55.253Z,99177.69
2023-01-09T15:37:58.177Z,99172.44
2023-01-09T15:41:04.507Z,99178.16
2023-01-09T15:44:14.378Z,99183.84
2023-01-09T15:47:27.865Z,99182.63
2023-01-09T15:50:29.709Z,99180.47
2023-01-09T15:53:31.965Z,99194.94
2023-01-09T15:56:35.282Z,99197.72
2023-01-09T15:59:38.477Z,99197.28
2023-01-09T16:03:03.844Z,99196.13
2023-01-09T16:06:13.453Z,99207.53
2023-01-09T16:09:16.732Z,99227.41
2023-01-09T16:12:21.760Z,99233.00
2023-01-09T16:15:25.610Z,99242.38
2023-01-09T16:18:33.034Z,99251.88
2023-01-09T16:21:36.626Z,99243.16
2023-01-09T16:24:41.324Z,99247.75
2023-01-09T16:27:42.982Z,99249.16
2023-01-09T16:30:56.986Z,99251.50
2023-01-09T16:34:04.426Z,99265.13
2023-01-09T16:37:06.280Z,99265.63
2023-01-09T16:40:31.705Z,99268.47
2023-01-09T16:43:33.299Z,99267.94
2023-01-09T16:46:38.433Z,99271.06
2023-01-09T16:49:40.081Z,99280.25
2023-01-09T16:57:03.500Z,99290.81
2023-01-09T17:00:06.271Z,99292.25
2023-01-09T17:03:12.440Z,99302.78
2023-01-09T17:10:36.329Z,99313.34
2023-01-09T17:13:38.131Z,99319.66
2023-01-09T17:16:43.255Z,99326.06
2023-01-09T17:19:46.746Z,99346.03
2023-01-09T17:22:48.373Z,99342.66
2023-01-09T17:26:11.989Z,99337.34
2023-01-09T17:29:13.656Z,99347.25
2023-01-09T17:32:16.750Z,99359.25
2023-01-09T17:35:19.845Z,99371.59
2023-01-09T17:38:21.536Z,99377.97
2023-01-09T17:41:24.416Z,99379.31
2023-01-09T17:44:26.397Z,99398.97
2023-01-09T17:47:28.600Z,99409.13
2023-01-09T17:50:34.580Z,99408.50
2023-01-09T17:53:42.111Z,99421.28
2023-01-09T17:56:46.271Z,99425.75
2023-01-09T17:59:47.918Z,99437.94
2023-01-09T18:02:49.702Z,99443.63
2023-01-09T18:05:53.098Z,99455.88
2023-01-09T18:08:57.350Z,99464.63
2023-01-09T18:11:59.658Z,99475.69
2023-01-09T18:15:02.458Z,99476.00
2023-01-09T18:18:04.090Z,99482.47
2023-01-09T18:21:09.468Z,99499.63
2023-01-09T18:24:11.242Z,99508.84
2023-01-09T18:27:12.868Z,99506.84
2023-01-09T18:30:14.781Z,99515.91
2023-01-09T18:33:17.466Z,99523.88
2023-01-09T18:36:21.888Z,99534.78
2023-01-09T18:39:23.526Z,99535.53
2023-01-09T18:42:25.201Z,99550.09
2023-01-09T18:45:26.879Z,99539.38
2023-01-09T18:48:28.509Z,99551.31
2023-01-09T18:51:33.658Z,99556.66
2023-01-09T18:54:35.118Z,99570.16
2023-01-09T18:57:37.500Z,99570.28
2023-01-09T19:00:41.189Z,99573.84
2023-01-09T19:03:42.949Z,99574.97
2023-01-09T19:06:45.881Z,99574.75
2023-01-09T19:09:47.629Z,99587.34
2023-01-09T19:12:49.256Z,99592.38
2023-01-09T19:15:53.958Z,99602.34
2023-01-09T19:18:55.596Z,99602.97
2023-01-09T19:21:58.468Z,99598.38
2023-01-09T19:25:00.199Z,99612.31
2023-01-09T19:28:02.065Z,99618.28
2023-01-09T19:31:03.823Z,99616.75
2023-01-09T19:34:05.384Z,99625.66
2023-01-09T19:37:09.566Z,99630.88
2023-01-09T19:40:12.123Z,99636.84
2023-01-09T19:43:25.504Z,99628.56
2023-01-09T19:46:28.410Z,99633.19
2023-01-09T19:49:30.105Z,99642.81
2023-01-09T19:52:33.163Z,99651.41
2023-01-09T19:55:35.984Z,99664.59
2023-01-09T19:58:37.641Z,99671.38
2023-01-09T20:01:41.534Z,99672.13
2023-01-09T20:04:43.217Z,99672.13
2023-01-09T20:07:46.152Z,99686.84
2023-01-09T20:10:47.736Z,99690.06
2023-01-09T20:13:49.428Z,99682.56
2023-01-09T20:16:53.849Z,99685.00
2023-01-09T20:19:55.487Z,99685.47
2023-01-09T20:22:58.391Z,99692.56
2023-01-09T20:26:00.456Z,99692.72
2023-01-09T20:29:02.747Z,99700.88
2023-01-09T20:32:06.077Z,99699.78
2023-01-09T20:35:08.267Z,99713.00
2023-01-09T20:38:11.367Z,99711.63
2023-01-09T20:41:23.884Z,99717.13
2023-01-09T20:44:25.490Z,99725.41
2023-01-09T20:47:28.891Z,99725.59
2023-01-09T20:50:31.290Z,99723.75
2023-01-09T20:53:34.182Z,99729.72
2023-01-09T20:56:36.750Z,99732.63
2023-01-09T20:59:38.447Z,99735.69
2023-01-09T21:02:40.097Z,99738.63
2023-01-09T21:05:41.781Z,99742.94
2023-01-09T21:08:46.809Z,99746.16
2023-01-09T21:11:48.462Z,99748.00
2023-01-09T21:14:50.068Z,99757.69
2023-01-09T21:17:51.769Z,99755.97
2023-01-09T21:20:53.449Z,99761.38
2023-01-09T21:23:58.852Z,99767.50
2023-01-09T21:27:00.450Z,99760.94
2023-01-09T21:30:02.283Z,99772.56
2023-01-09T21:33:04.003Z,99773.69
2023-01-09T21:36:06.801Z,99779.81
2023-01-09T21:39:09.761Z,99781.63
2023-01-09T21:42:30.186Z,99789.59
2023-01-09T21:45:50.429Z,99790.34
2023-01-09T21:48:52.142Z,99794.19
2023-01-09T21:51:54.936Z,99793.16
2023-01-09T21:54:57.892Z,99796.91
2023-01-09T21:58:03.416Z,99800.63
2023-01-09T22:01:05.234Z,99804.75
2023-01-09T22:04:06.944Z,99816.06
2023-01-09T22:07:09.948Z,99812.69
2023-01-09T22:10:13.099Z,99818.53
2023-01-09T22:13:17.553Z,99821.88
2023-01-09T22:16:19.346Z,99831.56
2023-01-09T22:19:21.024Z,99834.91
2023-01-09T22:22:22.772Z,99834.25
2023-01-09T22:25:26.381Z,99843.38
2023-01-09T22:28:28.037Z,99851.00
2023-01-09T22:31:30.073Z,99858.06
2023-01-09T22:34:32.005Z,99866.22
2023-01-09T22:37:33.964Z,99863.94
2023-01-09T22:40:38.591Z,99869.44
2023-01-09T22:43:40.135Z,99872.84
2023-01-09T22:46:42.044Z,99876.19
2023-01-09T22:49:52.819Z,99892.94
2023-01-09T22:52:54.821Z,99884.38
2023-01-09T22:55:59.364Z,99905.97
2023-01-09T22:59:01.147Z,99904.88
2023-01-09T23:02:02.805Z,99918.56
2023-01-09T23:05:05.119Z,99913.22
2023-01-09T23:08:06.730Z,99920.00
2023-01-09T23:11:12.147Z,99923.50
2023-01-09T23:14:13.815Z,99920.91
2023-01-09T23:17:15.551Z,99929.81
2023-01-09T23:20:17.268Z,99935.94
2023-01-09T23:23:20.801Z,99936.56
2023-01-09T23:26:23.792Z,99941.75
2023-01-09T23:29:26.175Z,99945.47
2023-01-09T23:32:27.728Z,99950.53
2023-01-09T23:35:29.292Z,99958.16
2023-01-09T23:38:30.937Z,99965.09
2023-01-09T23:41:52.374Z,99963.56
2023-01-09T23:44:53.920Z,99972.16
2023-01-09T23:47:55.609Z,99979.22
2023-01-09T23:50:57.189Z,99994.53
2023-01-09T23:53:58.970Z,99999.00
2023-01-09T23:57:02.091Z,99999.16
